KHYS

Hays Regional Airport

Hays, Kansas, USA
METAR KHYS 240056Z AUTO 15006KT 10SM CLR 22/16 A2996 RMK AO2 SLP130 T02170161 PNO $
Observed Flight Rules
May-24 @ 00:56 UTC (57 minutes ago) Visual Flight Rules
Wind Visibility Clouds
150° at 6 knots 10 miles
  • Clear skies
Temperatures Readings
Current 22°C / 72°F
Dewpoint 16°C / 61°F
Humidity 69%
Altimeter 29.96" Hg
Pressure 1013 hPa
Elevation 609
METAR KHYS 240056Z AUTO 15006KT 10SM CLR 22/16 A2996 RMK AO2 SLP130 T02170161 PNO $
Observed Flight Rules
May-24 @ 00:56 UTC
(57 minutes ago)
VFR
Wind Visibility
150° at 6 knots 10 miles
Clouds
  • Clear skies
Temperature Dewpoint
22°C / 72°F 16°C / 61°F
Humidity Altimeter Pressure
69% 29.96" Hg 1013 hPa